Terminal Aerodrome Forecast
Issued by NWS

Home | Current Version | Previous Version | Text Only | Print | Product List | Glossary On
Versions: 1 2 3 4 5 6 7 8 9 10 11 12 13 14 15 16 17 18 19 20 21 22 23 24 25 26
522
FTPQ31 PGUM 171743
TAFGUM
TAF

TAF
PKWA 171743Z 1718/1818 12008KT P6SM VCSH SCT020 SCT070 BKN130
      TEMPO 1718/1720 -SHRA SCT015 BKN025=

USA.gov is the U.S. government's official web portal to all federal, state and local government web resources and services.